Terminal Aerodrome Forecast
Issued by NWS Quad Cities IA IL

Home | Current Version | Previous Version | Graphics & Text | Print | Product List | Glossary On
Versions: 1 2 3 4 5 6 7 8 9 10 11 12 13 14 15 16 17 18 19
000
FTUS43 KDVN 181700
TAFDBQ
TAF
KDBQ 181726Z 1818/1918 12006KT P6SM SCT030
     FM190000 12004KT P6SM SKC
     FM190900 15005KT 4SM BR SCT003
     FM191100 16006KT 2SM BR SCT002
     FM191430 18011KT P6SM SCT010 SCT250=

USA.gov is the U.S. government's official web portal to all federal, state and local government web resources and services.